Time;durP1;ratioP1;P1;durP2;ratioP2;P2;SDS_P1;SDS_P2;PMS_P1;PMS_P2;Temp;Humidity;BMP_temperature;BMP_pressure;BME280_temperature;BME280_humidity;BME280_pressure;Samples;Min_cycle;Max_cycle;Signal;HPM_P1;HPM_P2
2021/08/24 00:00:45;;;;;;;5.10;4.65;;;;;;;;;;2080719;28;20718;-55
2021/08/24 00:01:45;;;;;;;6.47;4.32;;;;;;;;;;2080739;28;20176;-57
2021/08/24 00:02:46;;;;;;;6.38;4.70;;;;;;;;;;2089347;28;20210;-56
2021/08/24 00:03:46;;;;;;;6.35;5.75;;;;;;;;;;2085574;28;20183;-57
2021/08/24 00:04:46;;;;;;;4.50;4.20;;;;;;;;;;2084649;28;20183;-55
2021/08/24 00:05:46;;;;;;;4.97;4.57;;;;;;;;;;2089054;28;20171;-54
2021/08/24 00:06:47;;;;;;;5.30;4.85;;;;;;;;;;2088956;28;20890;-56
2021/08/24 00:07:47;;;;;;;6.55;5.05;;;;;;;;;;2089935;28;20195;-53
2021/08/24 00:08:47;;;;;;;4.95;4.55;;;;;;;;;;2088293;28;20214;-56
2021/08/24 00:09:48;;;;;;;5.45;4.95;;;;;;;;;;2090149;28;20174;-54
2021/08/24 00:10:50;;;;;;;4.90;4.50;;;;;;;;;;2080098;28;20668;-55
2021/08/24 00:11:51;;;;;;;4.85;4.32;;;;;;;;;;2081243;28;20177;-53
2021/08/24 00:12:51;;;;;;;5.43;4.85;;;;;;;;;;2088668;28;22340;-54
2021/08/24 00:13:52;;;;;;;6.07;4.95;;;;;;;;;;2088755;28;20168;-55
2021/08/24 00:14:52;;;;;;;5.00;4.57;;;;;;;;;;2088979;28;20512;-57
2021/08/24 00:15:52;;;;;;;4.82;4.43;;;;;;;;;;2089139;28;20265;-53
2021/08/24 00:16:52;;;;;;;4.78;3.92;;;;;;;;;;2089616;28;20167;-56
2021/08/24 00:17:53;;;;;;;4.90;4.50;;;;;;;;;;2089269;28;20162;-56
2021/08/24 00:18:54;;;;;;;4.40;4.10;;;;;;;;;;2088544;28;20179;-53
2021/08/24 00:19:54;;;;;;;4.85;4.45;;;;;;;;;;2080274;28;20223;-56
2021/08/24 00:20:55;;;;;;;5.20;4.65;;;;;;;;;;2079702;28;20270;-55
2021/08/24 00:21:55;;;;;;;4.72;4.32;;;;;;;;;;2080667;28;20255;-55
2021/08/24 00:22:56;;;;;;;4.63;4.32;;;;;;;;;;2080494;28;20188;-56
2021/08/24 00:23:56;;;;;;;6.20;4.90;;;;;;;;;;2086366;28;20204;-56
2021/08/24 00:24:56;;;;;;;5.60;5.00;;;;;;;;;;2089139;28;20164;-54
2021/08/24 00:25:57;;;;;;;6.57;4.90;;;;;;;;;;2088919;28;20628;-54
2021/08/24 00:26:57;;;;;;;5.55;4.35;;;;;;;;;;2080283;28;20300;-55
2021/08/24 00:27:58;;;;;;;5.63;4.97;;;;;;;;;;2077612;28;20219;-56
2021/08/24 00:28:58;;;;;;;5.93;5.03;;;;;;;;;;2080458;28;20164;-55
2021/08/24 00:29:58;;;;;;;8.48;4.97;;;;;;;;;;2088832;28;20183;-54
2021/08/24 00:30:58;;;;;;;5.30;4.80;;;;;;;;;;2089181;28;20168;-55
2021/08/24 00:31:59;;;;;;;6.63;5.32;;;;;;;;;;2088121;28;20210;-55
2021/08/24 00:32:59;;;;;;;5.20;4.68;;;;;;;;;;2089449;28;20164;-54
2021/08/24 00:33:59;;;;;;;8.23;5.82;;;;;;;;;;2077969;28;20231;-56
2021/08/24 00:35:00;;;;;;;6.45;5.85;;;;;;;;;;2079897;28;20210;-55
2021/08/24 00:36:00;;;;;;;7.05;5.65;;;;;;;;;;2080492;28;20172;-53
2021/08/24 00:37:01;;;;;;;6.95;5.78;;;;;;;;;;2079785;28;20681;-52
2021/08/24 00:38:01;;;;;;;9.98;6.32;;;;;;;;;;2084989;28;20168;-54
2021/08/24 00:39:02;;;;;;;6.18;5.68;;;;;;;;;;2078943;28;20160;-56
2021/08/24 00:40:03;;;;;;;6.93;5.85;;;;;;;;;;2076346;28;20176;-51
2021/08/24 00:41:04;;;;;;;5.88;5.30;;;;;;;;;;2079807;28;20676;-54
2021/08/24 00:42:13;;;;;;;7.45;5.90;;;;;;;;;;2079637;28;20176;-54
2021/08/24 00:43:13;;;;;;;6.13;5.63;;;;;;;;;;2088972;28;20187;-56
2021/08/24 00:44:14;;;;;;;6.13;5.63;;;;;;;;;;2089109;28;20191;-56
2021/08/24 00:45:15;;;;;;;6.95;6.25;;;;;;;;;;2080222;28;20270;-54
2021/08/24 00:46:15;;;;;;;6.80;6.18;;;;;;;;;;2080581;28;20172;-51
2021/08/24 00:47:16;;;;;;;6.53;6.03;;;;;;;;;;2088875;28;20253;-55
2021/08/24 00:48:18;;;;;;;9.05;5.82;;;;;;;;;;2079334;28;20295;-52
2021/08/24 00:49:21;;;;;;;5.75;5.28;;;;;;;;;;2080516;28;20211;-54
2021/08/24 00:50:24;;;;;;;5.97;5.47;;;;;;;;;;2087891;28;20655;-56
2021/08/24 00:51:25;;;;;;;6.50;5.80;;;;;;;;;;2088789;28;20232;-56
2021/08/24 00:52:26;;;;;;;6.55;5.95;;;;;;;;;;2082487;28;20318;-56
2021/08/24 00:53:30;;;;;;;6.35;5.75;;;;;;;;;;2081116;28;20164;-57
2021/08/24 00:54:31;;;;;;;5.72;5.18;;;;;;;;;;2080612;28;20637;-56
2021/08/24 00:55:32;;;;;;;5.75;5.25;;;;;;;;;;2097221;28;20206;-56
2021/08/24 00:56:32;;;;;;;9.07;5.97;;;;;;;;;;2089581;28;20171;-53
2021/08/24 00:57:33;;;;;;;6.63;6.03;;;;;;;;;;2090148;28;20722;-59
2021/08/24 00:58:33;;;;;;;5.65;5.22;;;;;;;;;;2085681;28;20170;-52
2021/08/24 00:59:34;;;;;;;6.63;5.70;;;;;;;;;;2089726;28;20233;-54
2021/08/24 01:00:34;;;;;;;6.25;5.75;;;;;;;;;;2087861;28;20172;-54
2021/08/24 01:01:34;;;;;;;6.07;5.50;;;;;;;;;;2088656;28;20163;-51
2021/08/24 01:02:35;;;;;;;6.00;5.38;;;;;;;;;;2087066;28;20647;-55
2021/08/24 01:03:36;;;;;;;5.68;5.18;;;;;;;;;;2088985;28;20182;-55
2021/08/24 01:04:37;;;;;;;7.43;6.53;;;;;;;;;;2086789;28;20167;-55
2021/08/24 01:05:39;;;;;;;6.18;5.57;;;;;;;;;;2080095;28;20192;-55
2021/08/24 01:06:51;;;;;;;6.53;5.65;;;;;;;;;;2080016;28;20212;-56
2021/08/24 01:07:54;;;;;;;6.28;5.78;;;;;;;;;;2089019;28;20156;-58
2021/08/24 01:08:57;;;;;;;6.22;5.82;;;;;;;;;;2077485;28;20194;-52
2021/08/24 01:10:06;;;;;;;6.55;5.88;;;;;;;;;;2080484;28;20594;-55
2021/08/24 01:11:09;;;;;;;6.25;5.65;;;;;;;;;;2077484;28;20196;-58
2021/08/24 01:12:12;;;;;;;6.50;5.85;;;;;;;;;;2079989;28;20176;-54
2021/08/24 01:13:12;;;;;;;6.68;5.80;;;;;;;;;;2086854;28;20168;-56
2021/08/24 01:14:19;;;;;;;6.00;5.38;;;;;;;;;;2088309;28;20240;-55
2021/08/24 01:15:57;;;;;;;7.78;7.00;;;;;;;;;;2088814;28;20199;-55
2021/08/24 01:17:13;;;;;;;7.07;6.47;;;;;;;;;;2059595;28;20178;-55
2021/08/24 01:18:13;;;;;;;7.55;6.30;;;;;;;;;;2060277;28;20169;-55
2021/08/24 01:19:16;;;;;;;7.15;6.45;;;;;;;;;;2063365;28;20244;-54
2021/08/24 01:20:16;;;;;;;6.78;6.28;;;;;;;;;;2063340;28;20212;-53
2021/08/24 01:21:33;;;;;;;8.25;6.63;;;;;;;;;;2063529;28;20177;-55
2021/08/24 01:22:33;;;;;;;7.90;7.20;;;;;;;;;;2067567;28;20653;-56
2021/08/24 01:23:48;;;;;;;7.65;6.45;;;;;;;;;;2088872;28;20167;-57
2021/08/24 01:25:07;;;;;;;8.20;6.97;;;;;;;;;;2084557;28;20257;-55
2021/08/24 01:26:25;;;;;;;8.52;7.20;;;;;;;;;;2078272;28;20202;-56
2021/08/24 01:27:33;;;;;;;10.23;8.15;;;;;;;;;;2079929;28;20598;-56
2021/08/24 01:28:48;;;;;;;8.13;7.32;;;;;;;;;;2078963;28;20210;-54
2021/08/24 01:29:50;;;;;;;11.43;7.57;;;;;;;;;;2077494;28;20172;-55
2021/08/24 01:30:56;;;;;;;8.32;7.63;;;;;;;;;;2071268;28;20196;-56
2021/08/24 01:32:15;;;;;;;8.45;7.50;;;;;;;;;;2078870;28;20168;-54
2021/08/24 01:33:33;;;;;;;8.55;7.75;;;;;;;;;;2081838;28;20227;-56
2021/08/24 01:34:55;;;;;;;8.13;7.32;;;;;;;;;;2077068;28;20228;-53
2021/08/24 01:35:55;;;;;;;7.63;6.93;;;;;;;;;;2090852;28;20660;-56
2021/08/24 01:37:02;;;;;;;8.35;7.65;;;;;;;;;;2090703;28;20163;-55
2021/08/24 01:38:23;;;;;;;8.27;7.25;;;;;;;;;;2087338;28;20229;-57
2021/08/24 01:39:26;;;;;;;8.82;7.45;;;;;;;;;;2083632;28;20621;-56
2021/08/24 01:40:38;;;;;;;8.73;7.72;;;;;;;;;;2089634;28;20195;-53
2021/08/24 01:41:57;;;;;;;8.73;7.88;;;;;;;;;;2083929;28;20191;-56
2021/08/24 01:42:57;;;;;;;8.95;8.15;;;;;;;;;;2079382;28;20168;-51
2021/08/24 01:44:02;;;;;;;9.30;8.35;;;;;;;;;;2075185;28;20732;-56
2021/08/24 01:45:03;;;;;;;9.80;8.88;;;;;;;;;;2082331;28;20286;-54
2021/08/24 01:46:12;;;;;;;8.52;7.78;;;;;;;;;;2091028;28;20235;-54
2021/08/24 01:47:16;;;;;;;7.90;7.18;;;;;;;;;;2087659;28;20176;-54
2021/08/24 01:48:19;;;;;;;8.20;7.50;;;;;;;;;;2080572;28;20168;-56
2021/08/24 01:49:20;;;;;;;8.77;7.97;;;;;;;;;;2081522;28;20268;-53
2021/08/24 01:50:25;;;;;;;9.20;7.90;;;;;;;;;;2082047;28;20206;-58
2021/08/24 01:51:28;;;;;;;8.48;7.80;;;;;;;;;;2081585;28;20586;-53
2021/08/24 01:52:34;;;;;;;9.48;8.52;;;;;;;;;;2090841;28;20160;-53
2021/08/24 01:53:38;;;;;;;8.55;7.85;;;;;;;;;;2073907;28;20259;-55
2021/08/24 01:54:40;;;;;;;8.23;7.43;;;;;;;;;;2081711;28;20177;-58
2021/08/24 01:56:02;;;;;;;8.75;7.95;;;;;;;;;;2091089;28;20566;-53
2021/08/24 01:57:05;;;;;;;9.65;7.80;;;;;;;;;;2086614;28;20168;-56
2021/08/24 01:58:19;;;;;;;8.35;7.72;;;;;;;;;;2079122;28;20172;-55
2021/08/24 01:59:19;;;;;;;9.93;8.35;;;;;;;;;;2081251;28;20207;-54
2021/08/24 02:00:19;;;;;;;8.48;7.60;;;;;;;;;;2077347;28;20173;-56
2021/08/24 02:01:22;;;;;;;8.90;8.02;;;;;;;;;;2088818;28;20344;-54
2021/08/24 02:02:27;;;;;;;10.10;9.07;;;;;;;;;;2085173;28;20246;-56
2021/08/24 02:03:32;;;;;;;10.27;8.90;;;;;;;;;;2089960;28;20168;-55
2021/08/24 02:04:35;;;;;;;10.02;8.95;;;;;;;;;;2082343;28;20225;-55
2021/08/24 02:05:42;;;;;;;9.50;8.50;;;;;;;;;;2090087;28;20255;-56
2021/08/24 02:06:44;;;;;;;9.57;8.63;;;;;;;;;;2090791;28;20182;-58
2021/08/24 02:07:47;;;;;;;10.18;9.38;;;;;;;;;;2080909;28;20184;-56
2021/08/24 02:08:49;;;;;;;10.73;9.60;;;;;;;;;;2081275;28;20207;-56
2021/08/24 02:09:52;;;;;;;9.88;9.00;;;;;;;;;;2089869;28;20175;-55
2021/08/24 02:10:57;;;;;;;10.73;9.38;;;;;;;;;;2091086;28;20245;-56
2021/08/24 02:11:58;;;;;;;9.80;8.70;;;;;;;;;;2089205;28;20666;-55
2021/08/24 02:13:00;;;;;;;9.98;8.98;;;;;;;;;;2089903;28;20188;-54
2021/08/24 02:14:04;;;;;;;9.00;8.15;;;;;;;;;;2077936;28;20185;-53
2021/08/24 02:15:05;;;;;;;10.23;8.00;;;;;;;;;;2075806;28;22254;-55
2021/08/24 02:16:08;;;;;;;9.10;8.18;;;;;;;;;;2087357;28;20640;-53
2021/08/24 02:17:10;;;;;;;11.50;9.30;;;;;;;;;;2090053;28;20186;-52
2021/08/24 02:18:13;;;;;;;9.02;8.23;;;;;;;;;;2086692;28;20722;-54
2021/08/24 02:19:18;;;;;;;9.98;8.98;;;;;;;;;;2090056;28;20156;-54
2021/08/24 02:20:18;;;;;;;10.80;9.63;;;;;;;;;;2089342;28;20183;-54
2021/08/24 02:21:22;;;;;;;10.30;9.20;;;;;;;;;;2090467;28;20179;-57
2021/08/24 02:22:28;;;;;;;10.50;9.50;;;;;;;;;;2089833;28;20262;-53
2021/08/24 02:23:30;;;;;;;10.75;9.65;;;;;;;;;;2090680;28;20286;-52
2021/08/24 02:24:39;;;;;;;9.60;8.50;;;;;;;;;;2081999;28;20191;-56
2021/08/24 02:25:41;;;;;;;11.82;9.20;;;;;;;;;;2089919;28;20184;-52
2021/08/24 02:26:42;;;;;;;10.02;9.13;;;;;;;;;;2090322;28;20175;-51
2021/08/24 02:27:50;;;;;;;10.75;9.07;;;;;;;;;;2090239;28;20254;-53
2021/08/24 02:28:52;;;;;;;11.10;9.90;;;;;;;;;;2087693;28;20207;-55
2021/08/24 02:29:52;;;;;;;11.63;9.32;;;;;;;;;;2090570;28;20176;-55
2021/08/24 02:31:00;;;;;;;12.43;10.60;;;;;;;;;;2090196;28;20183;-57
2021/08/24 02:32:02;;;;;;;12.65;11.27;;;;;;;;;;2082390;28;20255;-53
2021/08/24 02:33:03;;;;;;;12.40;10.52;;;;;;;;;;2078601;28;20675;-53
2021/08/24 02:34:12;;;;;;;11.77;10.57;;;;;;;;;;2089625;28;20261;-55
2021/08/24 02:35:30;;;;;;;13.40;11.40;;;;;;;;;;2085349;28;20215;-55
2021/08/24 02:36:31;;;;;;;14.77;11.27;;;;;;;;;;2086482;28;20271;-55
2021/08/24 02:37:52;;;;;;;12.05;10.80;;;;;;;;;;2090072;28;20214;-55
2021/08/24 02:38:57;;;;;;;10.90;9.90;;;;;;;;;;2081090;28;20168;-52
2021/08/24 02:40:03;;;;;;;13.88;10.98;;;;;;;;;;2082813;28;20180;-56
2021/08/24 02:41:13;;;;;;;11.25;10.15;;;;;;;;;;2086660;28;20164;-55
2021/08/24 02:42:18;;;;;;;11.13;10.02;;;;;;;;;;2090655;28;20168;-55
2021/08/24 02:43:28;;;;;;;12.02;10.43;;;;;;;;;;2081595;28;20186;-54
2021/08/24 02:44:35;;;;;;;12.45;11.18;;;;;;;;;;2083362;28;20222;-54
2021/08/24 02:45:39;;;;;;;11.63;10.43;;;;;;;;;;2077220;28;20222;-55
2021/08/24 02:46:41;;;;;;;11.57;10.45;;;;;;;;;;2073869;28;20181;-51
2021/08/24 02:47:42;;;;;;;11.48;10.35;;;;;;;;;;2081420;28;20199;-52
2021/08/24 02:48:43;;;;;;;11.18;9.45;;;;;;;;;;2090025;28;20194;-51
2021/08/24 02:49:44;;;;;;;11.85;9.85;;;;;;;;;;2090753;28;20278;-53
2021/08/24 02:50:44;;;;;;;11.68;10.50;;;;;;;;;;2089919;28;20203;-51
2021/08/24 02:51:46;;;;;;;13.57;10.52;;;;;;;;;;2079747;28;20181;-55
2021/08/24 02:52:48;;;;;;;10.90;9.88;;;;;;;;;;2082897;28;20242;-52
2021/08/24 02:53:54;;;;;;;11.65;10.23;;;;;;;;;;2091847;28;20172;-53
2021/08/24 02:54:55;;;;;;;11.32;10.18;;;;;;;;;;2086760;28;20179;-54
2021/08/24 02:55:55;;;;;;;12.15;10.85;;;;;;;;;;2088396;28;20178;-51
2021/08/24 02:56:55;;;;;;;12.05;10.88;;;;;;;;;;2092962;28;20164;-54
2021/08/24 02:57:56;;;;;;;11.20;9.98;;;;;;;;;;2083685;28;20180;-57
2021/08/24 02:58:56;;;;;;;12.35;11.13;;;;;;;;;;2084055;28;20173;-57
2021/08/24 02:59:56;;;;;;;13.85;11.57;;;;;;;;;;2074536;28;20188;-54
2021/08/24 03:00:57;;;;;;;12.02;10.90;;;;;;;;;;2083711;28;20210;-50
2021/08/24 03:01:58;;;;;;;12.63;11.32;;;;;;;;;;2083787;28;20178;-54
2021/08/24 03:02:59;;;;;;;13.68;11.55;;;;;;;;;;2075209;28;20211;-58
2021/08/24 03:03:59;;;;;;;14.07;12.68;;;;;;;;;;2083332;28;20236;-58
2021/08/24 03:04:59;;;;;;;15.10;11.55;;;;;;;;;;2092483;28;20313;-54
2021/08/24 03:06:00;;;;;;;12.88;11.50;;;;;;;;;;2092748;28;20168;-56
2021/08/24 03:07:04;;;;;;;12.50;10.77;;;;;;;;;;2091356;28;20704;-54
2021/08/24 03:08:04;;;;;;;13.32;10.82;;;;;;;;;;2092211;28;20176;-54
2021/08/24 03:09:05;;;;;;;12.88;11.68;;;;;;;;;;2088753;28;20167;-55
2021/08/24 03:10:09;;;;;;;13.00;11.18;;;;;;;;;;2092833;28;20176;-55
2021/08/24 03:11:11;;;;;;;12.02;10.65;;;;;;;;;;2091807;28;20206;-53
2021/08/24 03:12:30;;;;;;;13.20;11.98;;;;;;;;;;2092349;28;20171;-53
2021/08/24 03:13:32;;;;;;;12.63;11.35;;;;;;;;;;2093687;28;20186;-54
2021/08/24 03:14:36;;;;;;;12.52;11.32;;;;;;;;;;2085491;28;20156;-54
2021/08/24 03:15:45;;;;;;;13.23;11.82;;;;;;;;;;2094561;28;20207;-56
2021/08/24 03:16:58;;;;;;;14.05;11.23;;;;;;;;;;2095163;28;20167;-55
2021/08/24 03:18:01;;;;;;;15.50;12.05;;;;;;;;;;2094083;28;20160;-54
2021/08/24 03:19:03;;;;;;;13.90;12.45;;;;;;;;;;2093198;28;20175;-52
2021/08/24 03:20:06;;;;;;;13.85;12.15;;;;;;;;;;2093056;28;20163;-57
2021/08/24 03:21:10;;;;;;;13.25;12.05;;;;;;;;;;2093584;28;20184;-53
2021/08/24 03:22:12;;;;;;;16.35;12.63;;;;;;;;;;2092978;28;20175;-56
2021/08/24 03:23:14;;;;;;;12.60;11.30;;;;;;;;;;2090283;28;20205;-51
2021/08/24 03:24:15;;;;;;;12.20;11.00;;;;;;;;;;2083934;28;20164;-54
2021/08/24 03:25:16;;;;;;;13.27;11.82;;;;;;;;;;2089911;28;20191;-56
2021/08/24 03:26:21;;;;;;;11.95;10.70;;;;;;;;;;2083916;28;20738;-56
2021/08/24 03:27:21;;;;;;;14.68;11.05;;;;;;;;;;2077256;28;20187;-51
2021/08/24 03:28:23;;;;;;;10.20;9.30;;;;;;;;;;2090028;28;20632;-55
2021/08/24 03:29:23;;;;;;;11.43;10.20;;;;;;;;;;2081658;28;20173;-54
2021/08/24 03:30:24;;;;;;;10.88;9.88;;;;;;;;;;2082515;28;20178;-54
2021/08/24 03:31:26;;;;;;;11.07;9.85;;;;;;;;;;2091237;28;20180;-55
2021/08/24 03:32:27;;;;;;;11.85;10.60;;;;;;;;;;2091038;28;20170;-51
2021/08/24 03:33:27;;;;;;;11.80;10.60;;;;;;;;;;2091089;28;20167;-52
2021/08/24 03:34:27;;;;;;;10.93;9.93;;;;;;;;;;2081493;28;20188;-52
2021/08/24 03:35:28;;;;;;;11.57;10.38;;;;;;;;;;2081352;28;20275;-52
2021/08/24 03:36:28;;;;;;;12.95;10.40;;;;;;;;;;2081341;28;20175;-52
2021/08/24 03:37:28;;;;;;;11.40;10.40;;;;;;;;;;2082020;28;20169;-52
2021/08/24 03:38:29;;;;;;;17.95;11.00;;;;;;;;;;2089804;28;20175;-54
2021/08/24 03:39:29;;;;;;;11.10;9.95;;;;;;;;;;2089569;28;20167;-54
2021/08/24 03:40:29;;;;;;;11.60;10.55;;;;;;;;;;2082815;28;20539;-53
2021/08/24 03:41:30;;;;;;;13.75;10.82;;;;;;;;;;2082110;28;20173;-53
2021/08/24 03:42:30;;;;;;;12.30;11.02;;;;;;;;;;2076654;28;20192;-58
2021/08/24 03:43:31;;;;;;;14.27;12.88;;;;;;;;;;2084368;28;20203;-57
2021/08/24 03:44:31;;;;;;;13.63;12.23;;;;;;;;;;2092952;28;20175;-53
2021/08/24 03:45:32;;;;;;;14.45;12.98;;;;;;;;;;2093362;28;20184;-55
2021/08/24 03:46:33;;;;;;;15.05;13.30;;;;;;;;;;2093084;28;20175;-54
2021/08/24 03:47:33;;;;;;;14.32;12.52;;;;;;;;;;2085033;28;20207;-55
2021/08/24 03:48:33;;;;;;;12.55;11.27;;;;;;;;;;2076994;28;20180;-52
2021/08/24 03:49:33;;;;;;;12.52;11.23;;;;;;;;;;2076194;28;20189;-54
2021/08/24 03:50:34;;;;;;;13.35;11.05;;;;;;;;;;2083487;28;20612;-56
2021/08/24 03:51:34;;;;;;;15.10;12.07;;;;;;;;;;2083647;28;20191;-52
2021/08/24 03:52:35;;;;;;;13.38;11.35;;;;;;;;;;2081292;28;20168;-55
2021/08/24 03:53:35;;;;;;;14.18;10.98;;;;;;;;;;2089103;28;20163;-51
2021/08/24 03:54:35;;;;;;;13.88;10.73;;;;;;;;;;2089929;28;20180;-55
2021/08/24 03:55:36;;;;;;;13.32;12.02;;;;;;;;;;2080408;28;20210;-55
2021/08/24 03:56:37;;;;;;;13.43;12.05;;;;;;;;;;2079766;28;20591;-52
2021/08/24 03:57:37;;;;;;;12.93;11.45;;;;;;;;;;2090243;28;20177;-54
2021/08/24 03:58:37;;;;;;;12.52;11.18;;;;;;;;;;2089109;28;20651;-53
2021/08/24 03:59:37;;;;;;;12.63;11.32;;;;;;;;;;2089893;28;20198;-51
2021/08/24 04:00:38;;;;;;;13.07;11.70;;;;;;;;;;2088591;28;20167;-55
2021/08/24 04:01:38;;;;;;;12.63;11.30;;;;;;;;;;2089827;28;20160;-52
2021/08/24 04:02:38;;;;;;;11.40;10.30;;;;;;;;;;2082784;28;20521;-56
2021/08/24 04:03:40;;;;;;;12.93;9.75;;;;;;;;;;2080108;28;20235;-54
2021/08/24 04:04:40;;;;;;;11.18;10.07;;;;;;;;;;2076940;28;20195;-56
2021/08/24 04:05:40;;;;;;;11.93;10.27;;;;;;;;;;2088334;28;20199;-54
2021/08/24 04:06:42;;;;;;;10.57;9.50;;;;;;;;;;2082923;28;20173;-54
2021/08/24 04:07:42;;;;;;;10.18;9.30;;;;;;;;;;2079973;28;20195;-52
2021/08/24 04:08:42;;;;;;;12.82;9.70;;;;;;;;;;2072406;28;20295;-57
2021/08/24 04:09:43;;;;;;;11.27;10.07;;;;;;;;;;2080439;28;20207;-55
2021/08/24 04:10:43;;;;;;;11.23;10.13;;;;;;;;;;2088404;28;20204;-55
2021/08/24 04:11:43;;;;;;;15.27;11.45;;;;;;;;;;2090078;28;20183;-55
2021/08/24 04:12:44;;;;;;;15.32;11.18;;;;;;;;;;2088540;28;20187;-54
2021/08/24 04:13:44;;;;;;;11.88;10.80;;;;;;;;;;2084000;28;20529;-53
2021/08/24 04:14:44;;;;;;;11.57;10.48;;;;;;;;;;2089095;28;20259;-55
2021/08/24 04:15:44;;;;;;;11.63;10.38;;;;;;;;;;2088824;28;20249;-52
2021/08/24 04:16:45;;;;;;;12.93;10.70;;;;;;;;;;2089477;28;20219;-57
2021/08/24 04:17:46;;;;;;;13.20;11.57;;;;;;;;;;2089463;28;20172;-54
2021/08/24 04:18:46;;;;;;;12.60;11.20;;;;;;;;;;2087433;28;20200;-56
2021/08/24 04:19:46;;;;;;;15.07;11.55;;;;;;;;;;2089687;28;20174;-55
2021/08/24 04:20:46;;;;;;;14.18;12.02;;;;;;;;;;2089126;28;20587;-53
2021/08/24 04:21:47;;;;;;;13.70;12.23;;;;;;;;;;2081099;28;20286;-51
2021/08/24 04:22:48;;;;;;;12.32;11.02;;;;;;;;;;2079608;28;20177;-55
2021/08/24 04:23:49;;;;;;;13.40;11.85;;;;;;;;;;2089647;28;20585;-51
2021/08/24 04:24:49;;;;;;;13.73;12.32;;;;;;;;;;2088984;28;20183;-52
2021/08/24 04:25:50;;;;;;;13.85;12.18;;;;;;;;;;2086855;28;20183;-52
2021/08/24 04:26:50;;;;;;;16.98;12.98;;;;;;;;;;2083894;28;20209;-53
2021/08/24 04:27:50;;;;;;;14.05;12.15;;;;;;;;;;2086922;28;20229;-52
2021/08/24 04:28:51;;;;;;;13.40;12.00;;;;;;;;;;2083848;28;20171;-54
2021/08/24 04:29:51;;;;;;;13.65;11.98;;;;;;;;;;2088971;28;20191;-52
2021/08/24 04:30:51;;;;;;;15.32;11.05;;;;;;;;;;2089702;28;20171;-58
2021/08/24 04:31:52;;;;;;;11.77;10.43;;;;;;;;;;2089276;28;20573;-55
2021/08/24 04:32:52;;;;;;;12.55;10.23;;;;;;;;;;2093796;28;20167;-55
2021/08/24 04:33:52;;;;;;;13.50;10.30;;;;;;;;;;2095859;28;20183;-52
2021/08/24 04:34:53;;;;;;;12.75;10.77;;;;;;;;;;2093928;28;20520;-54
2021/08/24 04:35:53;;;;;;;12.35;10.57;;;;;;;;;;2097654;22;20870;-59
2021/08/24 04:36:54;;;;;;;12.43;10.30;;;;;;;;;;2082782;28;20171;-59
2021/08/24 04:37:54;;;;;;;16.13;10.95;;;;;;;;;;2084360;28;20201;-49
2021/08/24 04:38:55;;;;;;;11.82;10.68;;;;;;;;;;2094943;28;20224;-55
2021/08/24 04:39:55;;;;;;;11.02;9.90;;;;;;;;;;2088436;28;20176;-55
2021/08/24 04:40:55;;;;;;;11.18;10.18;;;;;;;;;;2083957;28;20164;-54
2021/08/24 04:41:56;;;;;;;11.70;10.20;;;;;;;;;;2087592;28;20175;-55
2021/08/24 04:42:56;;;;;;;13.40;11.45;;;;;;;;;;2081767;28;20184;-56
2021/08/24 04:43:56;;;;;;;14.10;10.45;;;;;;;;;;2087955;28;20191;-56
2021/08/24 04:44:58;;;;;;;14.65;11.40;;;;;;;;;;2086838;28;20163;-56
2021/08/24 04:45:58;;;;;;;12.43;11.18;;;;;;;;;;2084767;28;20200;-56
2021/08/24 04:46:59;;;;;;;15.10;11.50;;;;;;;;;;2080578;28;20196;-55
2021/08/24 04:47:59;;;;;;;13.25;10.80;;;;;;;;;;2068622;28;20252;-56
2021/08/24 04:48:59;;;;;;;11.50;10.40;;;;;;;;;;2068655;28;20188;-57
2021/08/24 04:49:59;;;;;;;11.35;10.25;;;;;;;;;;2085035;28;20175;-55
2021/08/24 04:51:00;;;;;;;12.35;10.70;;;;;;;;;;2085395;28;20248;-57
2021/08/24 04:52:00;;;;;;;11.98;10.75;;;;;;;;;;2080808;28;20218;-53
2021/08/24 04:53:02;;;;;;;12.50;11.20;;;;;;;;;;2077936;28;20168;-55
2021/08/24 04:54:03;;;;;;;12.95;11.45;;;;;;;;;;2079580;28;20164;-49
2021/08/24 04:55:04;;;;;;;13.45;12.05;;;;;;;;;;2081829;28;20184;-56
2021/08/24 04:56:04;;;;;;;14.52;13.13;;;;;;;;;;2080783;28;20200;-52
2021/08/24 04:57:05;;;;;;;17.50;13.98;;;;;;;;;;2080459;28;20176;-55
2021/08/24 04:58:05;;;;;;;18.98;14.50;;;;;;;;;;2078312;28;20723;-56
2021/08/24 04:59:05;;;;;;;14.73;12.88;;;;;;;;;;2075739;28;20213;-55
2021/08/24 05:00:06;;;;;;;15.13;13.13;;;;;;;;;;2075133;28;20245;-53
2021/08/24 05:01:07;;;;;;;14.73;13.20;;;;;;;;;;2082884;28;20169;-54
2021/08/24 05:02:07;;;;;;;17.35;12.48;;;;;;;;;;2083499;28;20175;-52
2021/08/24 05:03:07;;;;;;;13.85;12.15;;;;;;;;;;2083323;28;20173;-57
2021/08/24 05:04:08;;;;;;;12.77;11.55;;;;;;;;;;2082739;28;20171;-53
2021/08/24 05:05:08;;;;;;;15.80;13.23;;;;;;;;;;2082941;28;20171;-56
2021/08/24 05:06:09;;;;;;;14.05;11.90;;;;;;;;;;2083366;28;20211;-55
2021/08/24 05:07:09;;;;;;;13.90;12.48;;;;;;;;;;2083164;28;20239;-53
2021/08/24 05:08:09;;;;;;;15.05;12.45;;;;;;;;;;2083258;28;20590;-57
2021/08/24 05:09:09;;;;;;;17.95;13.68;;;;;;;;;;2074584;28;20164;-58
2021/08/24 05:10:10;;;;;;;15.38;12.10;;;;;;;;;;2075317;28;20781;-55
2021/08/24 05:11:10;;;;;;;16.42;13.82;;;;;;;;;;2074491;28;20235;-57
2021/08/24 05:12:11;;;;;;;19.58;13.40;;;;;;;;;;2086280;28;20222;-57
2021/08/24 05:13:11;;;;;;;16.90;13.65;;;;;;;;;;2084697;28;20194;-56
2021/08/24 05:14:11;;;;;;;16.17;12.50;;;;;;;;;;2075320;28;20660;-54
2021/08/24 05:15:12;;;;;;;15.82;13.60;;;;;;;;;;2074380;28;20738;-57
2021/08/24 05:16:12;;;;;;;14.73;13.23;;;;;;;;;;2081382;28;20614;-53
2021/08/24 05:17:12;;;;;;;15.57;12.63;;;;;;;;;;2081148;28;20183;-55
2021/08/24 05:18:12;;;;;;;15.02;11.68;;;;;;;;;;2078699;28;20764;-56
2021/08/24 05:19:13;;;;;;;12.20;11.00;;;;;;;;;;2078284;28;20250;-55
2021/08/24 05:20:13;;;;;;;14.38;12.63;;;;;;;;;;2070514;28;20217;-54
2021/08/24 05:21:13;;;;;;;14.30;12.80;;;;;;;;;;2069892;28;20190;-55
2021/08/24 05:22:14;;;;;;;13.15;11.75;;;;;;;;;;2069585;28;20582;-54
2021/08/24 05:23:15;;;;;;;15.60;11.90;;;;;;;;;;2078879;28;20187;-56
2021/08/24 05:24:15;;;;;;;19.05;11.68;;;;;;;;;;2071180;28;20256;-55
2021/08/24 05:25:18;;;;;;;12.50;11.20;;;;;;;;;;2069948;28;20176;-51
2021/08/24 05:26:20;;;;;;;11.65;10.45;;;;;;;;;;2080860;28;20261;-55
2021/08/24 05:27:21;;;;;;;11.32;10.13;;;;;;;;;;2080536;28;20172;-61
2021/08/24 05:28:21;;;;;;;11.13;10.05;;;;;;;;;;2080090;28;20514;-55
2021/08/24 05:29:21;;;;;;;11.68;10.48;;;;;;;;;;2071741;28;20165;-54
2021/08/24 05:30:24;;;;;;;11.20;9.63;;;;;;;;;;2070995;28;20165;-55
2021/08/24 05:31:24;;;;;;;10.00;9.10;;;;;;;;;;2077947;28;20176;-56
2021/08/24 05:32:24;;;;;;;10.52;9.63;;;;;;;;;;2076032;28;20942;-53
2021/08/24 05:33:24;;;;;;;11.55;10.32;;;;;;;;;;2078637;28;20164;-56
2021/08/24 05:34:25;;;;;;;11.40;10.30;;;;;;;;;;2071888;28;20175;-54
2021/08/24 05:35:25;;;;;;;11.48;10.27;;;;;;;;;;2069782;28;20200;-52
2021/08/24 05:36:25;;;;;;;12.57;9.90;;;;;;;;;;2079654;28;20246;-57
2021/08/24 05:37:25;;;;;;;11.30;10.10;;;;;;;;;;2072503;28;20176;-58
2021/08/24 05:38:27;;;;;;;11.75;10.48;;;;;;;;;;2072720;28;20608;-56
2021/08/24 05:39:27;;;;;;;11.00;9.88;;;;;;;;;;2074112;28;20188;-56
2021/08/24 05:40:27;;;;;;;11.32;10.23;;;;;;;;;;2071687;28;20182;-54
2021/08/24 05:41:27;;;;;;;11.57;10.48;;;;;;;;;;2074465;28;20216;-57
2021/08/24 05:42:28;;;;;;;10.65;9.55;;;;;;;;;;2073479;28;20173;-54
2021/08/24 05:43:28;;;;;;;11.38;10.27;;;;;;;;;;2074401;28;20177;-57
2021/08/24 05:44:29;;;;;;;11.73;9.75;;;;;;;;;;2080095;28;20160;-58
2021/08/24 05:45:29;;;;;;;10.70;9.70;;;;;;;;;;2080159;28;20199;-54
2021/08/24 05:46:29;;;;;;;12.15;9.88;;;;;;;;;;2079462;28;20188;-54
2021/08/24 05:47:29;;;;;;;10.77;9.75;;;;;;;;;;2082588;28;20175;-59
2021/08/24 05:48:31;;;;;;;11.13;10.02;;;;;;;;;;2080322;28;20180;-54
2021/08/24 05:49:34;;;;;;;12.00;10.73;;;;;;;;;;2079614;28;20170;-57
2021/08/24 05:50:34;;;;;;;10.57;9.50;;;;;;;;;;2072681;28;20177;-56
2021/08/24 05:51:35;;;;;;;10.45;9.35;;;;;;;;;;2073011;28;20701;-57
2021/08/24 05:52:35;;;;;;;10.10;8.98;;;;;;;;;;2079024;28;20173;-58
2021/08/24 05:53:36;;;;;;;12.65;10.00;;;;;;;;;;2073061;28;20204;-55
2021/08/24 05:54:36;;;;;;;12.13;9.95;;;;;;;;;;2073170;28;20169;-57
2021/08/24 05:55:37;;;;;;;9.90;9.00;;;;;;;;;;2073041;28;20235;-57
2021/08/24 05:56:40;;;;;;;10.52;9.43;;;;;;;;;;2077705;28;20183;-56
2021/08/24 05:57:40;;;;;;;11.90;8.98;;;;;;;;;;2076808;28;20192;-55
2021/08/24 05:58:41;;;;;;;10.63;8.10;;;;;;;;;;2077003;28;20185;-58
2021/08/24 05:59:41;;;;;;;9.98;8.98;;;;;;;;;;2073743;28;20187;-54
2021/08/24 06:00:42;;;;;;;10.05;9.10;;;;;;;;;;2077293;28;20676;-56
2021/08/24 06:01:42;;;;;;;9.60;8.75;;;;;;;;;;2076727;28;20259;-57
2021/08/24 06:02:42;;;;;;;10.93;8.90;;;;;;;;;;2079624;28;20263;-51
2021/08/24 06:03:43;;;;;;;10.27;9.20;;;;;;;;;;2080683;28;20606;-52
2021/08/24 06:04:43;;;;;;;9.95;8.95;;;;;;;;;;2080850;28;20180;-52
2021/08/24 06:05:43;;;;;;;10.65;9.57;;;;;;;;;;2080227;28;20234;-55
2021/08/24 06:06:44;;;;;;;11.10;9.43;;;;;;;;;;2081565;28;20172;-54
2021/08/24 06:07:47;;;;;;;9.65;8.85;;;;;;;;;;2081292;28;20169;-54